EDDP Airport Information

Runway Information
Runway 08L Length 11811 ft width 148 ft
Elevation 418 ft Threshold 0 ft Heading 86
Runway 26R Length 11811 ft Width 148 ft
Elevation 448 ft Threshold 0 ft Heading 266
Runway 08R Length 11811 ft width 198 ft
Elevation 0 ft Threshold 0 ft Heading 86
Runway 26L Length 11811 ft Width 198 ft
Elevation 0 ft Threshold 0 ft Heading 266
Airport Frequencies
Type APP Name MUNCHEN RA Frequency 124.175 MHZ
Type ATIS Name ATIS Frequency 123.95 MHZ
Type GND Name GND Frequency 121.8 MHZ
Type INFO Name MUNCHEN IN Frequency 125.8 MHZ
Type TWR Name TWR Frequency 121.1 MHZ
Airport Navaids
Type DME Name Leipzig South Frequency 112150 KHZ
Type VOR-DME Name Leipzig Frequency 115850 KHZ
Type DME Name Leipzig North Frequency 113500 KHZ
Type NDB Name Leipzig Frequency 357 KHZ
Type NDB Name Leipzig Frequency 434 KHZ
Type NDB Name Leipzig Frequency 340 KHZ
Airport Weather Information & NOTAM
ADDS - METARS form results

(1545 UTC 14 June 2021)
Data provider http://aviationweather.gov/metar/data/
 
METAR text: EDDP 141520Z VRB03KT CAVOK 25/12 Q1020 NOSIG
Conditions at: EDDP (LEIPZIG/SCHKEUDI, DE) observed 1520 UTC 14 June 2021
Temperature: 25.0°C (77°F)
Dewpoint: 12.0°C (54°F) [RH = 44%]
Pressure (altimeter): 30.12 inches Hg (1020.0 mb)
Winds: variable direction winds at 3 MPH (3 knots; 1.5 m/s)
Visibility: 6 or more miles (10+ km)
Ceiling: ceiling and visibility are OK
Clouds: unknown
Weather: no significant weather observed at this time

METAR text: EDDP 141450Z VRB02KT CAVOK 25/11 Q1020 NOSIG
Conditions at: EDDP (LEIPZIG/SCHKEUDI, DE) observed 1450 UTC 14 June 2021
Temperature: 25.0°C (77°F)
Dewpoint: 11.0°C (52°F) [RH = 41%]
Pressure (altimeter): 30.12 inches Hg (1020.0 mb)
Winds: variable direction winds at 2 MPH (2 knots; 1.0 m/s)
Visibility: 6 or more miles (10+ km)
Ceiling: ceiling and visibility are OK
Clouds: unknown
Weather: no significant weather observed at this time

Forecast for: EDDP (LEIPZIG/SCHKEUDI, DE)
Text: TAF EDDP 141100Z 1412/1512 20005KT CAVOK
Forecast period: 1200 UTC 14 June 2021 to 0500 UTC 15 June 2021
Forecast type: FROM: standard forecast or significant change
Winds: from the SSW (200 degrees) at 6 MPH (5 knots; 2.6 m/s)
Visibility: 6 or more miles (10+ km)
Ceiling: unknown
Clouds: missing
Weather: NSW  (no significant weather)
Text: BECMG 1505/1508 30005KT
Forecast period: 0500 to 1200 UTC 15 June 2021
Forecast type: BECOMING: Conditions expected to become as follows by 0800 UTC 15 June 2021
Winds: from the WNW (300 degrees) at 6 MPH (5 knots; 2.6 m/s)
Visibility: 6 or more miles (10+ km)
Ceiling: unknown
Clouds: missing
Weather: NSW  (no significant weather)